Parker, Pennsylvania
Current Conditions -  °F | °C
As of 6:15 AM on Saturday 25 Oct 2014 (Local Time) from KFKL Reporting Station
Overcast Overcast  
Wind Chill: 41°   Ceiling: 4000
Heat Index: 45°   Visibility: 10mi
Dew Point: 37°   Wind: 7mph
Humidity: 76%   Direction: 220°SW
Pressure: 29.95"   Gusts: NA
Location:  41.1°N, 79.68°W
Report Text: KFKL 251015Z 22006KT 10SM OVC040 07/03 A2995 RMK AO1
Loading
Personal Weather Stations






























Interactive Weather Map
Tropical Storm Tracking
New forecast layout! Learn more

10-Day Weather Forecast

Advertisements
Track Severe Weather on mobile